Time;durP1;ratioP1;P1;durP2;ratioP2;P2;SDS_P1;SDS_P2;PMS_P1;PMS_P2;Temp;Humidity;BMP_temperature;BMP_pressure;BME280_temperature;BME280_humidity;BME280_pressure;Samples;Min_cycle;Max_cycle;Signal;HPM_P1;HPM_P2
2023/02/17 00:03:41;;;;;;;55.42;24.38;;;0.00;99.90;;;;;;20914753;28;20025;-67
2023/02/17 00:13:43;;;;;;;44.08;19.38;;;0.00;99.90;;;;;;20913583;28;20045;-59
2023/02/17 00:23:47;;;;;;;42.15;19.20;;;-0.10;99.90;;;;;;20912940;28;20040;-66
2023/02/17 00:33:49;;;;;;;35.53;17.55;;;-0.10;99.90;;;;;;20912218;28;20044;-59
2023/02/17 00:43:50;;;;;;;40.50;16.92;;;-0.20;99.90;;;;;;20911334;28;20029;-59
2023/02/17 00:53:53;;;;;;;43.95;20.38;;;-0.40;99.90;;;;;;20909594;28;20309;-59
2023/02/17 01:03:55;;;;;;;70.57;30.45;;;-0.40;99.90;;;;;;20910450;28;20029;-66
2023/02/17 01:13:57;;;;;;;50.92;22.63;;;-0.50;99.90;;;;;;20895915;28;20052;-67
2023/02/17 01:24:02;;;;;;;52.92;24.27;;;-0.40;99.90;;;;;;20906788;28;20559;-59
2023/02/17 01:34:04;;;;;;;41.08;19.88;;;-0.30;99.90;;;;;;20908231;28;20059;-67
2023/02/17 01:44:08;;;;;;;51.17;22.90;;;-0.30;99.90;;;;;;20905217;28;20090;-59
2023/02/17 01:54:17;;;;;;;68.45;32.65;;;-0.20;99.90;;;;;;20906170;28;20041;-67
2023/02/17 02:04:24;;;;;;;53.90;27.25;;;0.00;99.90;;;;;;20905066;28;20029;-67
2023/02/17 02:14:26;;;;;;;50.40;23.73;;;-0.10;99.90;;;;;;20902968;28;20045;-59
2023/02/17 02:24:31;;;;;;;45.90;21.75;;;-0.10;99.90;;;;;;20904926;28;20036;-59
2023/02/17 02:34:54;;;;;;;44.28;19.88;;;0.10;99.90;;;;;;20902508;28;20040;-67
2023/02/17 02:44:57;;;;;;;41.92;19.38;;;0.30;99.90;;;;;;20902602;28;20037;-59
2023/02/17 02:55:17;;;;;;;35.83;16.48;;;0.20;99.90;;;;;;20902843;28;20359;-59
2023/02/17 03:05:33;;;;;;;42.55;18.48;;;0.10;99.90;;;;;;20900964;28;20044;-59
2023/02/17 03:15:36;;;;;;;61.22;30.65;;;0.10;99.90;;;;;;20902676;28;20452;-59
2023/02/17 03:25:37;;;;;;;40.42;19.65;;;0.20;99.90;;;;;;20894696;28;20044;-59
2023/02/17 03:35:40;;;;;;;38.95;17.60;;;0.10;99.90;;;;;;20917161;28;20036;-59
2023/02/17 03:45:42;;;;;;;31.20;15.05;;;-0.10;99.90;;;;;;20915966;28;20037;-59
2023/02/17 03:55:43;;;;;;;33.85;14.48;;;0.00;99.90;;;;;;20915676;28;20039;-67
2023/02/17 04:05:45;;;;;;;37.22;17.60;;;0.10;99.90;;;;;;20914746;28;20064;-67
2023/02/17 04:15:47;;;;;;;25.80;12.88;;;0.30;99.90;;;;;;20913895;28;20090;-67
2023/02/17 04:25:49;;;;;;;25.20;12.30;;;0.20;99.90;;;;;;20912958;28;20116;-60
2023/02/17 04:35:52;;;;;;;26.83;12.15;;;0.20;99.90;;;;;;20910010;28;20067;-67
2023/02/17 04:45:54;;;;;;;17.15;7.88;;;0.00;99.90;;;;;;20911417;28;20036;-59
2023/02/17 04:55:55;;;;;;;12.00;5.47;;;-0.10;99.90;;;;;;20911611;28;20024;-67
2023/02/17 05:05:57;;;;;;;8.15;3.65;;;0.10;99.90;;;;;;20911157;28;20033;-60
2023/02/17 05:15:59;;;;;;;7.25;3.22;;;0.20;99.90;;;;;;20909122;28;20090;-67
2023/02/17 05:26:00;;;;;;;22.98;8.57;;;0.00;99.90;;;;;;20907070;28;20041;-62
2023/02/17 05:36:04;;;;;;;9.60;4.63;;;0.00;99.90;;;;;;20907913;28;20486;-59
2023/02/17 05:46:06;;;;;;;8.23;4.15;;;-0.30;99.90;;;;;;20906623;28;20071;-59
2023/02/17 05:56:08;;;;;;;8.73;4.40;;;-0.40;99.90;;;;;;20906323;28;20033;-67
2023/02/17 06:06:09;;;;;;;6.85;3.10;;;-0.20;99.90;;;;;;20905001;28;20049;-66
2023/02/17 06:16:11;;;;;;;13.48;5.75;;;-0.20;99.90;;;;;;20902080;28;20102;-59
2023/02/17 06:26:14;;;;;;;7.43;2.20;;;-0.20;99.90;;;;;;20903920;28;20048;-59
2023/02/17 06:36:16;;;;;;;11.65;5.25;;;-0.10;99.90;;;;;;20903721;28;20079;-68
2023/02/17 06:46:18;;;;;;;24.15;10.20;;;0.20;99.90;;;;;;20901359;28;20490;-59
2023/02/17 06:56:19;;;;;;;16.83;5.95;;;0.30;99.90;;;;;;20906891;28;20033;-67
2023/02/17 07:06:22;;;;;;;37.10;17.70;;;0.50;99.90;;;;;;20919965;28;20045;-67
2023/02/17 07:16:23;;;;;;;28.65;13.77;;;1.00;99.90;;;;;;20917319;28;20033;-59
2023/02/17 07:26:25;;;;;;;47.05;22.35;;;1.80;99.90;;;;;;20917385;28;20087;-67
2023/02/17 07:36:27;;;;;;;39.60;20.27;;;2.30;99.90;;;;;;20914405;28;20394;-68
2023/02/17 07:46:29;;;;;;;42.10;21.67;;;2.70;99.90;;;;;;20914547;28;20033;-59
2023/02/17 07:56:32;;;;;;;59.63;32.17;;;3.20;99.90;;;;;;20915670;28;20040;-59
2023/02/17 08:06:34;;;;;;;74.53;36.80;;;4.00;99.90;;;;;;20913090;28;20087;-59
2023/02/17 08:16:35;;;;;;;65.55;35.00;;;5.00;99.90;;;;;;20914767;28;20036;-66
2023/02/17 08:26:37;;;;;;;72.72;39.05;;;5.90;99.90;;;;;;20912719;28;20047;-59
2023/02/17 08:36:42;;;;;;;71.38;39.75;;;6.50;99.90;;;;;;20912497;28;20039;-66
2023/02/17 08:46:46;;;;;;;80.50;44.95;;;7.20;99.90;;;;;;20909772;28;20166;-59
2023/02/17 08:56:48;;;;;;;76.85;43.78;;;7.70;99.90;;;;;;20910957;28;20429;-60
2023/02/17 09:06:53;;;;;;;77.53;43.70;;;8.10;99.90;;;;;;20910116;28;20041;-59
2023/02/17 09:16:56;;;;;;;84.55;50.22;;;8.70;99.90;;;;;;20891080;28;20033;-66
2023/02/17 09:26:57;;;;;;;85.03;48.80;;;9.20;99.90;;;;;;20908324;28;20037;-60
2023/02/17 09:36:59;;;;;;;89.88;50.35;;;9.20;99.90;;;;;;20907731;28;20029;-59
2023/02/17 09:47:28;;;;;;;91.13;53.25;;;9.30;99.90;;;;;;20906611;28;20033;-60
2023/02/17 09:57:36;;;;;;;92.15;52.47;;;9.70;99.90;;;;;;20905978;28;20059;-65
2023/02/17 10:07:45;;;;;;;91.80;53.92;;;10.10;99.90;;;;;;20905978;28;20048;-65
2023/02/17 10:18:25;;;;;;;88.78;54.13;;;10.60;99.90;;;;;;20904862;28;20033;-65
2023/02/17 10:28:32;;;;;;;97.28;57.47;;;10.70;99.90;;;;;;20873062;28;20500;-59
2023/02/17 10:38:46;;;;;;;101.78;57.80;;;11.00;99.90;;;;;;20904983;28;20029;-60
2023/02/17 10:48:50;;;;;;;97.50;58.58;;;10.60;99.90;;;;;;20903016;28;20047;-60
2023/02/17 10:59:17;;;;;;;93.03;55.75;;;10.70;99.90;;;;;;20901246;28;20483;-59
2023/02/17 11:09:27;;;;;;;101.05;58.70;;;10.70;99.90;;;;;;20900553;28;20102;-59
2023/02/17 11:19:34;;;;;;;97.65;60.15;;;11.00;99.90;;;;;;20902528;28;20060;-60
2023/02/17 11:29:36;;;;;;;96.93;58.90;;;10.90;99.90;;;;;;20901256;28;20044;-58
2023/02/17 11:39:47;;;;;;;104.68;61.70;;;10.70;99.90;;;;;;20902570;28;20359;-56
2023/02/17 11:50:07;;;;;;;105.07;61.53;;;11.20;99.90;;;;;;20915919;28;20055;-59
2023/02/17 12:00:50;;;;;;;102.25;61.92;;;11.70;99.90;;;;;;20915393;28;20546;-59
2023/02/17 12:11:09;;;;;;;110.68;64.13;;;11.80;99.90;;;;;;20908245;28;20044;-66
2023/02/17 12:21:32;;;;;;;106.80;63.90;;;11.40;99.90;;;;;;20913888;28;20463;-59
2023/02/17 12:31:52;;;;;;;110.60;67.00;;;11.40;99.90;;;;;;20912706;28;20356;-59
2023/02/17 12:42:21;;;;;;;112.53;67.03;;;11.50;99.90;;;;;;20913849;28;20024;-66
2023/02/17 12:52:27;;;;;;;108.18;66.25;;;11.50;99.90;;;;;;20910416;28;20048;-59
2023/02/17 13:02:29;;;;;;;104.93;63.45;;;10.70;99.90;;;;;;20910732;28;20095;-66
2023/02/17 13:12:39;;;;;;;97.00;59.22;;;10.40;99.90;;;;;;20909757;28;20067;-66
2023/02/17 13:22:42;;;;;;;93.73;56.40;;;10.30;99.90;;;;;;20907297;28;20033;-58
2023/02/17 13:32:44;;;;;;;96.95;55.13;;;10.30;99.90;;;;;;20920637;28;20033;-57
2023/02/17 13:42:56;;;;;;;91.63;53.65;;;10.00;99.90;;;;;;20907019;28;20025;-64
2023/02/17 13:52:59;;;;;;;90.82;50.92;;;10.00;99.90;;;;;;20906695;28;20051;-57
2023/02/17 14:03:28;;;;;;;86.20;52.20;;;9.90;99.90;;;;;;20905630;28;20040;-59
2023/02/17 14:13:31;;;;;;;85.13;50.50;;;9.50;99.90;;;;;;20905054;28;20088;-66
2023/02/17 14:23:41;;;;;;;82.28;48.08;;;9.80;99.90;;;;;;20904706;28;20047;-66
2023/02/17 14:33:59;;;;;;;73.03;43.15;;;9.70;99.90;;;;;;20905220;28;20436;-60
2023/02/17 14:44:00;;;;;;;69.93;41.78;;;9.40;99.90;;;;;;20903111;28;20086;-67
2023/02/17 14:54:11;;;;;;;72.85;44.50;;;8.60;99.90;;;;;;20903564;28;20547;-60
2023/02/17 15:04:13;;;;;;;66.57;39.28;;;8.00;99.90;;;;;;20902732;28;20390;-66
2023/02/17 15:14:17;;;;;;;61.08;37.20;;;7.50;99.90;;;;;;20901740;28;20044;-67
2023/02/17 15:24:24;;;;;;;64.80;37.03;;;6.90;99.90;;;;;;20917687;28;20346;-67
2023/02/17 15:34:30;;;;;;;60.33;34.58;;;6.50;99.90;;;;;;20918752;28;20421;-67
2023/02/17 15:44:45;;;;;;;52.63;33.00;;;6.60;99.90;;;;;;20916317;28;20048;-59
2023/02/17 15:54:47;;;;;;;59.53;34.13;;;6.40;99.90;;;;;;20915643;28;20032;-60
2023/02/17 16:04:48;;;;;;;53.30;31.83;;;5.90;99.90;;;;;;20911716;28;20029;-67
2023/02/17 16:14:50;;;;;;;64.55;36.67;;;5.20;99.90;;;;;;20902082;28;20083;-67
2023/02/17 16:24:51;;;;;;;62.95;33.80;;;4.70;99.90;;;;;;20863045;28;20038;-59
2023/02/17 16:34:53;;;;;;;75.60;38.58;;;4.40;99.90;;;;;;20890283;28;20544;-66
2023/02/17 16:44:54;;;;;;;88.43;44.38;;;3.90;99.90;;;;;;20910903;28;20539;-60
2023/02/17 16:54:56;;;;;;;71.47;37.42;;;3.50;99.90;;;;;;20911338;28;20048;-59
2023/02/17 17:04:58;;;;;;;87.18;41.35;;;3.10;99.90;;;;;;20910544;28;20025;-67
2023/02/17 17:14:59;;;;;;;86.15;43.25;;;2.70;99.90;;;;;;20910757;28;20445;-59
2023/02/17 17:25:01;;;;;;;88.18;44.13;;;2.30;99.90;;;;;;20908541;28;20095;-60
2023/02/17 17:35:03;;;;;;;94.68;45.88;;;2.00;99.90;;;;;;20908217;28;20029;-59
2023/02/17 17:45:05;;;;;;;104.60;48.05;;;1.90;99.90;;;;;;20895570;28;20041;-59
2023/02/17 17:55:07;;;;;;;112.35;51.03;;;1.80;99.90;;;;;;20906509;28;20033;-64
2023/02/17 18:05:08;;;;;;;95.72;44.08;;;1.70;99.90;;;;;;20905553;28;20036;-66
2023/02/17 18:15:11;;;;;;;117.70;53.03;;;1.80;99.90;;;;;;20904626;28;20052;-59
2023/02/17 18:25:12;;;;;;;98.43;44.83;;;1.80;99.90;;;;;;20901768;28;20029;-59
2023/02/17 18:35:15;;;;;;;101.05;47.55;;;1.70;99.90;;;;;;20904206;28;20355;-57
2023/02/17 18:45:16;;;;;;;105.97;47.08;;;1.60;99.90;;;;;;20903191;28;20082;-66
2023/02/17 18:55:18;;;;;;;116.78;50.47;;;1.50;99.90;;;;;;20901754;28;20466;-66
2023/02/17 19:05:20;;;;;;;104.60;47.50;;;1.40;99.90;;;;;;20901411;28;20045;-66
2023/02/17 19:15:22;;;;;;;122.95;51.45;;;1.30;99.90;;;;;;20901698;28;20041;-60
2023/02/17 19:25:24;;;;;;;125.15;54.92;;;1.30;99.90;;;;;;20900696;28;20029;-67
2023/02/17 19:35:25;;;;;;;100.90;43.78;;;1.30;99.90;;;;;;20900087;28;20025;-59
2023/02/17 19:45:28;;;;;;;91.30;38.10;;;1.20;99.90;;;;;;20898678;28;20048;-59
2023/02/17 19:55:29;;;;;;;86.93;38.53;;;0.90;99.90;;;;;;20898281;28;20033;-59
2023/02/17 20:05:40;;;;;;;107.78;46.15;;;0.80;99.90;;;;;;20903315;28;20102;-59
2023/02/17 20:15:41;;;;;;;63.83;28.60;;;0.80;99.90;;;;;;20912907;28;20065;-59
2023/02/17 20:25:43;;;;;;;80.63;38.03;;;1.20;99.90;;;;;;20909278;28;20324;-59
2023/02/17 20:35:45;;;;;;;76.88;33.45;;;1.30;99.90;;;;;;20910309;28;20029;-59
2023/02/17 20:45:48;;;;;;;103.90;46.17;;;1.10;99.90;;;;;;20908428;28;20059;-63
2023/02/17 20:55:50;;;;;;;82.70;35.85;;;1.10;99.90;;;;;;20872632;28;20394;-58
2023/02/17 21:05:52;;;;;;;130.05;50.58;;;1.30;99.90;;;;;;20908574;28;20390;-57
2023/02/17 21:15:54;;;;;;;78.85;34.83;;;1.20;99.90;;;;;;20906928;28;20049;-59
2023/02/17 21:25:55;;;;;;;98.93;44.65;;;1.40;99.90;;;;;;20905007;28;20037;-59
2023/02/17 21:35:57;;;;;;;117.55;49.03;;;1.00;99.90;;;;;;20905563;28;20041;-65
2023/02/17 21:45:59;;;;;;;124.65;49.97;;;0.80;99.90;;;;;;20905354;28;20037;-59
2023/02/17 21:56:01;;;;;;;131.10;52.63;;;1.00;99.90;;;;;;20904386;28;20036;-59
2023/02/17 22:06:13;;;;;;;93.55;39.08;;;1.00;99.90;;;;;;20904668;28;20363;-59
2023/02/17 22:16:15;;;;;;;94.93;36.72;;;0.70;99.90;;;;;;20903058;28;20071;-59
2023/02/17 22:26:20;;;;;;;101.10;39.55;;;0.60;99.90;;;;;;20902883;28;20036;-59
2023/02/17 22:36:23;;;;;;;86.68;35.47;;;0.60;99.90;;;;;;20903510;28;20037;-57
2023/02/17 22:46:25;;;;;;;95.85;41.20;;;0.60;99.90;;;;;;20901755;28;20028;-59
2023/02/17 22:56:29;;;;;;;86.78;40.15;;;0.90;99.90;;;;;;20902319;28;20094;-59
2023/02/17 23:06:32;;;;;;;101.57;42.40;;;0.90;99.90;;;;;;20901472;28;20049;-59
2023/02/17 23:16:34;;;;;;;91.10;39.60;;;0.70;99.90;;;;;;20901714;28;20028;-60
2023/02/17 23:26:36;;;;;;;66.90;31.05;;;1.20;99.90;;;;;;20900721;28;20040;-59
2023/02/17 23:36:39;;;;;;;63.63;30.42;;;1.40;99.90;;;;;;20902412;28;20032;-59
2023/02/17 23:46:41;;;;;;;54.88;26.55;;;1.20;99.90;;;;;;20916542;28;20428;-59
2023/02/17 23:56:43;;;;;;;81.65;35.25;;;1.10;99.90;;;;;;20912263;28;20546;-62
